Skip Navigation Links
NOAA logo - Click to go to the NOAA homepage
NOAA's National Weather Service
Alaska Aviation Weather Unit
  NWS logo - Click to go to the NWS homepage
Left Navbar Graphic     15 AKDT = 23 GMT

   
NOAA is celebrating 200 years of science, service, and stewardship. Visit the NOAA 200th celebration Web site to learn more.
USA.gov is the U.S. Government's official Web portal to all Federal, state and local government Web resources and services.
Facebook
NWS on Facebook

Important Change Regarding the AAWU Web Presence

 

Over the last several months, the AAWU has been working to navigate its webpages to a nationally supported server. Security, as well as other needs, have necessitated the change.  We have been given an extension for the site changeover while we diligently work at addressing feedback received. As of July 14, 2017, aawu.arh.noaa.gov will be discontinued. The new AAWU web address is weather.gov/aawu. It is now live and will run in-parallel with the old site until it is discontinued on July 14, 2017. Please continue to send any feedback or questions regarding the new webpages to nws.ar.aawu.webauthors@noaa.gov.  Thank you for your patience during this time of transition.
AAWU Home :: Display TAF Add Bookmark
SPECI PAEG 191715Z AUTO 29009KT 2SM -SN OVC031 M07/M11 A2925 RMK AO2
 P0000 T10721111 TSNO $=

PAEG 191724Z AUTO 29008G14KT 1 3/4SM -SN OVC032 M07/M11 A2925 RMK
     AO2 P0000 T10721111 TSNO $=

SPECI PAEG 191734Z AUTO 29007KT 2SM -SN OVC032 M07/M11 A2925 RMK AO2
     P0000 T10721106 TSNO $=

METAR PAEG 191753Z AUTO 28009KT 3SM HZ OVC032 M07/M11 A2925 RMK AO2
     SNE42 SLP919 P0000 60001 T10721111 11050 21072 51007 TSNO=

METAR PAEG 191853Z AUTO 29006KT 3SM HZ BKN031 OVC037 M07/M12 A2926 RMK
     AO2 SLP921 T10671117 TSNO=

METAR PAEG 191953Z AUTO 28007KT 8SM OVC029 M07/M12 A2927 RMK AO2 SLP924
     T10671117 TSNO=

METAR PAEG 192053Z AUTO 28008KT 10SM OVC027 M07/M12 A2927 RMK AO2 SLP924
     T10671117 51005 TSNO=

METAR PAEG 192153Z AUTO 29007KT 8SM -SN OVC027 M06/M12 A2927 RMK AO2
     SNB50 SLP925 P0000 T10611117 TSNO=

METAR PAEG 192253Z AUTO 30006KT 8SM -SN OVC028 M06/M11 A2927 RMK AO2
     SLP926 P0000 T10611111 TSNO=


NOAA's National Weather Service
Alaska Aviation Weather Unit
6930 Sand Lake Road
Anchorage, AK 99502-1845
Disclaimer
Credits
Glossary
Privacy Policy
About Us
Career Opportunities
Contact AAWU Internet Services Site last modified: April, 17th 2012